createdAt,value
2022-09-12T00:01:35.344Z,6.00
2022-09-12T00:04:03.734Z,5.60
2022-09-12T00:06:37.774Z,5.50
2022-09-12T00:09:11.114Z,6.60
2022-09-12T00:11:43.187Z,7.70
2022-09-12T00:16:44.749Z,5.40
2022-09-12T00:19:14.412Z,10.70
2022-09-12T00:21:42.918Z,5.70
2022-09-12T00:24:11.749Z,8.00
2022-09-12T00:26:40.237Z,6.60
2022-09-12T00:29:08.684Z,6.90
2022-09-12T00:31:37.155Z,7.60
2022-09-12T00:34:05.612Z,7.50
2022-09-12T00:36:34.339Z,8.80
2022-09-12T00:39:05.511Z,8.80
2022-09-12T00:41:38.315Z,7.30
2022-09-12T00:44:13.011Z,8.00
2022-09-12T00:47:11.550Z,9.70
2022-09-12T00:49:53.954Z,7.80
2022-09-12T00:52:22.263Z,8.00
2022-09-12T00:54:58.228Z,8.80
2022-09-12T00:57:36.164Z,10.40
2022-09-12T01:00:17.476Z,12.10
2022-09-12T01:02:51.713Z,7.70
2022-09-12T01:05:21.746Z,8.40
2022-09-12T01:07:51.968Z,9.20
2022-09-12T01:10:21.486Z,7.30
2022-09-12T01:12:50.431Z,7.60
2022-09-12T01:15:19.814Z,7.80
2022-09-12T01:18:30.501Z,8.70
2022-09-12T01:21:26.266Z,7.80
2022-09-12T01:24:28.086Z,7.50
2022-09-12T01:27:30.749Z,7.90
2022-09-12T01:30:42.272Z,7.80
2022-09-12T01:33:41.508Z,7.80
2022-09-12T01:36:31.100Z,11.30
2022-09-12T01:39:13.913Z,8.70
2022-09-12T01:42:10.543Z,8.60
2022-09-12T01:44:41.476Z,8.80
2022-09-12T01:47:23.047Z,6.60
2022-09-12T01:49:58.958Z,9.40
2022-09-12T01:52:51.146Z,8.80
2022-09-12T01:55:32.128Z,6.80
2022-09-12T01:58:26.828Z,8.40
2022-09-12T02:01:07.979Z,8.90
2022-09-12T02:04:04.590Z,7.50
2022-09-12T02:06:47.524Z,7.60
2022-09-12T02:09:23.947Z,9.20
2022-09-12T02:12:00.037Z,7.90
2022-09-12T02:14:34.893Z,8.50
2022-09-12T02:17:15.132Z,10.50
2022-09-12T02:19:49.520Z,9.10
2022-09-12T02:22:22.821Z,9.20
2022-09-12T02:24:57.613Z,8.30
2022-09-12T02:27:38.581Z,10.60
2022-09-12T02:30:09.835Z,8.50
2022-09-12T02:32:45.425Z,9.50
2022-09-12T02:35:44.358Z,8.80
2022-09-12T02:38:44.667Z,9.60
2022-09-12T02:41:17.929Z,10.10
2022-09-12T02:43:49.147Z,9.20
2022-09-12T02:46:27.548Z,9.40
2022-09-12T02:48:56.883Z,9.00
2022-09-12T02:51:27.067Z,7.90
2022-09-12T02:53:56.169Z,11.30
2022-09-12T02:56:29.359Z,9.20
2022-09-12T02:59:07.337Z,8.70
2022-09-12T03:02:07.184Z,8.60
2022-09-12T03:04:49.126Z,9.60
2022-09-12T03:07:49.439Z,9.00
2022-09-12T03:10:48.648Z,9.90
2022-09-12T03:13:33.661Z,9.00
2022-09-12T03:16:28.896Z,9.00
2022-09-12T03:19:24.037Z,7.90
2022-09-12T03:22:19.279Z,10.10
2022-09-12T03:25:19.407Z,8.50
2022-09-12T03:28:08.293Z,9.30
2022-09-12T03:30:56.630Z,8.40
2022-09-12T03:33:26.795Z,8.30
2022-09-12T03:35:56.053Z,8.80
2022-09-12T03:38:24.679Z,8.60
2022-09-12T03:40:54.964Z,8.00
2022-09-12T03:43:23.965Z,7.50
2022-09-12T03:45:53.560Z,7.00
2022-09-12T03:48:22.111Z,7.90
2022-09-12T03:50:50.485Z,7.20
2022-09-12T03:53:18.898Z,7.60
2022-09-12T03:55:47.286Z,8.30
2022-09-12T03:58:15.635Z,7.90
2022-09-12T04:00:44.525Z,9.30
2022-09-12T04:03:13.061Z,8.70
2022-09-12T04:05:41.528Z,7.80
2022-09-12T04:08:09.968Z,10.10
2022-09-12T04:10:38.612Z,6.30
2022-09-12T04:13:07.325Z,7.70
2022-09-12T04:15:35.733Z,6.80
2022-09-12T04:18:06.137Z,8.40
2022-09-12T04:20:36.687Z,8.70
2022-09-12T04:23:05.277Z,9.70
2022-09-12T04:25:33.755Z,6.90
2022-09-12T04:28:02.459Z,8.10
2022-09-12T04:30:30.821Z,8.20
2022-09-12T04:32:59.143Z,6.60
2022-09-12T04:35:27.762Z,8.10
2022-09-12T04:37:56.285Z,7.80
2022-09-12T04:40:24.768Z,5.80
2022-09-12T04:42:53.150Z,9.40
2022-09-12T04:45:21.933Z,5.70
2022-09-12T04:47:50.542Z,5.90
2022-09-12T04:50:19.394Z,6.70
2022-09-12T04:52:55.321Z,5.90
2022-09-12T04:55:25.561Z,6.00
2022-09-12T04:57:53.965Z,7.80
2022-09-12T05:00:22.388Z,6.60
2022-09-12T05:02:50.799Z,6.50
2022-09-12T05:05:19.126Z,7.60
2022-09-12T05:07:47.426Z,6.70
2022-09-12T05:10:15.929Z,6.40
2022-09-12T05:12:44.317Z,7.20
2022-09-12T05:15:12.724Z,6.60
2022-09-12T05:17:41.101Z,7.50
2022-09-12T05:20:13.006Z,8.30
2022-09-12T05:22:41.360Z,7.60
2022-09-12T05:25:10.229Z,7.70
2022-09-12T05:27:38.608Z,8.30
2022-09-12T05:30:08.391Z,10.10
2022-09-12T05:32:36.745Z,8.80
2022-09-12T05:35:05.492Z,8.10
2022-09-12T05:37:34.052Z,8.00
2022-09-12T05:40:07.845Z,10.50
2022-09-12T05:42:36.945Z,8.00
2022-09-12T05:45:06.282Z,7.80
2022-09-12T05:47:34.883Z,7.80
2022-09-12T05:50:06.483Z,7.50
2022-09-12T05:52:34.785Z,8.60
2022-09-12T05:55:05.304Z,8.20
2022-09-12T05:57:33.850Z,7.90
2022-09-12T06:00:04.027Z,8.80
2022-09-12T06:02:40.565Z,7.50
2022-09-12T06:05:09.246Z,6.70
2022-09-12T06:07:37.606Z,10.70
2022-09-12T06:10:06.699Z,7.90
2022-09-12T06:12:34.973Z,7.40
2022-09-12T06:15:04.155Z,8.20
2022-09-12T06:17:32.579Z,7.70
2022-09-12T06:20:02.071Z,7.40
2022-09-12T06:22:31.894Z,6.90
2022-09-12T06:25:00.320Z,6.80
2022-09-12T06:27:29.341Z,8.80
2022-09-12T06:29:57.774Z,8.30
2022-09-12T06:32:26.146Z,9.10
2022-09-12T06:34:57.830Z,7.20
2022-09-12T06:37:26.237Z,7.50
2022-09-12T06:39:56.105Z,7.20
2022-09-12T06:42:24.868Z,8.10
2022-09-12T06:44:58.339Z,6.40
2022-09-12T06:47:27.257Z,6.50
2022-09-12T06:49:55.582Z,6.90
2022-09-12T06:52:24.070Z,8.80
2022-09-12T06:54:52.448Z,5.40
2022-09-12T06:57:20.855Z,5.90
2022-09-12T06:59:49.262Z,4.20
2022-09-12T07:02:17.688Z,4.10
2022-09-12T07:04:46.125Z,3.70
2022-09-12T07:07:14.853Z,5.80
2022-09-12T07:09:43.562Z,4.20
2022-09-12T07:12:12.715Z,4.20
2022-09-12T07:14:41.807Z,4.70
2022-09-12T07:17:10.229Z,6.40
2022-09-12T07:19:38.855Z,6.00
2022-09-12T07:22:07.295Z,4.80
2022-09-12T07:24:36.098Z,4.10
2022-09-12T07:27:05.639Z,3.90
2022-09-12T07:29:38.047Z,4.50
2022-09-12T07:32:07.274Z,5.00
2022-09-12T07:34:36.167Z,3.50
2022-09-12T07:37:06.036Z,6.40
2022-09-12T07:39:34.500Z,5.10
2022-09-12T07:42:04.328Z,5.10
2022-09-12T07:44:33.416Z,5.90
2022-09-12T07:47:02.424Z,7.30
2022-09-12T07:49:30.871Z,5.80
2022-09-12T07:51:59.215Z,4.00
2022-09-12T07:54:27.909Z,5.40
2022-09-12T07:56:56.414Z,3.60
2022-09-12T07:59:41.820Z,4.20
2022-09-12T08:02:17.245Z,8.30
2022-09-12T08:04:49.133Z,4.70
2022-09-12T08:07:19.263Z,5.50
2022-09-12T08:09:47.888Z,4.20
2022-09-12T08:12:18.303Z,3.60
2022-09-12T08:14:46.765Z,5.10
2022-09-12T08:17:15.138Z,3.50
2022-09-12T08:19:43.887Z,3.90
2022-09-12T08:22:13.349Z,4.70
2022-09-12T08:24:41.908Z,5.90
2022-09-12T08:27:10.836Z,4.10
2022-09-12T08:29:40.427Z,4.60
2022-09-12T08:32:08.853Z,4.50
2022-09-12T08:34:37.210Z,4.50
2022-09-12T08:37:06.315Z,4.90
2022-09-12T08:39:35.024Z,3.70
2022-09-12T08:42:07.267Z,8.90
2022-09-12T08:44:55.554Z,3.90
2022-09-12T08:47:36.750Z,3.90
2022-09-12T08:50:14.430Z,7.60
2022-09-12T08:53:03.660Z,6.60
2022-09-12T08:55:54.057Z,3.70
2022-09-12T08:58:29.193Z,4.60
2022-09-12T09:01:31.539Z,4.60
2022-09-12T09:04:18.789Z,3.90
2022-09-12T09:07:26.172Z,4.30
2022-09-12T09:10:25.697Z,7.60
2022-09-12T09:13:04.007Z,5.10
2022-09-12T09:16:00.445Z,4.00
2022-09-12T09:18:33.207Z,4.80
2022-09-12T09:21:30.309Z,5.50
2022-09-12T09:24:10.756Z,6.70
2022-09-12T09:27:02.983Z,6.30
2022-09-12T09:32:27.443Z,4.60
2022-09-12T09:34:56.660Z,3.40
2022-09-12T09:37:42.310Z,5.10
2022-09-12T09:40:38.437Z,6.40
2022-09-12T09:43:16.938Z,8.10
2022-09-12T09:45:47.826Z,6.80
2022-09-12T09:48:22.735Z,5.70
2022-09-12T09:50:51.703Z,5.20
2022-09-12T09:53:56.922Z,4.60
2022-09-12T09:56:45.360Z,7.70
2022-09-12T09:59:18.407Z,4.00
2022-09-12T10:02:03.588Z,3.90
2022-09-12T10:04:41.538Z,4.50
2022-09-12T10:07:20.050Z,6.10
2022-09-12T10:10:17.320Z,4.10
2022-09-12T10:12:46.125Z,5.50
2022-09-12T10:15:26.902Z,5.10
2022-09-12T10:17:57.353Z,3.80
2022-09-12T10:20:34.207Z,4.20
2022-09-12T10:23:37.415Z,5.30
2022-09-12T10:26:13.723Z,4.50
2022-09-12T10:28:49.623Z,3.60
2022-09-12T10:31:33.789Z,2.90
2022-09-12T10:34:02.233Z,3.40
2022-09-12T10:36:39.955Z,3.20
2022-09-12T10:39:19.467Z,7.60
2022-09-12T10:41:48.033Z,5.40
2022-09-12T10:44:28.831Z,4.60
2022-09-12T10:46:59.293Z,4.00
2022-09-12T10:49:38.294Z,3.00
2022-09-12T10:52:25.488Z,4.30
2022-09-12T10:54:54.778Z,5.10
2022-09-12T10:57:26.141Z,3.90
2022-09-12T11:00:18.095Z,4.80
2022-09-12T11:04:01.828Z,4.60
2022-09-12T11:07:05.178Z,2.50
2022-09-12T11:09:57.225Z,3.90
2022-09-12T11:12:50.654Z,3.10
2022-09-12T11:16:14.681Z,3.80
2022-09-12T11:18:56.049Z,3.30
2022-09-12T11:21:58.447Z,3.30
2022-09-12T11:24:58.224Z,4.40
2022-09-12T11:28:03.464Z,4.10
2022-09-12T11:30:48.775Z,3.00
2022-09-12T11:33:57.061Z,4.90
2022-09-12T11:37:01.010Z,4.40
2022-09-12T11:39:46.014Z,3.00
2022-09-12T11:42:24.077Z,3.90
2022-09-12T11:45:22.369Z,2.50
2022-09-12T11:47:58.017Z,1.80
2022-09-12T11:50:32.137Z,4.00
2022-09-12T11:53:28.213Z,3.40
2022-09-12T11:56:14.498Z,2.40
2022-09-12T11:58:49.366Z,1.60
2022-09-12T12:01:36.277Z,2.80
2022-09-12T12:04:13.037Z,4.90
2022-09-12T12:06:58.043Z,1.80
2022-09-12T12:09:26.513Z,2.00
2022-09-12T12:11:59.929Z,1.90
2022-09-12T12:14:51.258Z,2.00
2022-09-12T12:17:24.031Z,3.70
2022-09-12T12:20:08.401Z,3.90
2022-09-12T12:22:37.909Z,1.50
2022-09-12T12:25:12.377Z,1.30
2022-09-12T12:27:54.696Z,1.50
2022-09-12T12:30:33.481Z,2.40
2022-09-12T12:33:11.017Z,3.80
2022-09-12T12:35:43.313Z,2.70
2022-09-12T12:41:17.171Z,0.70
2022-09-12T12:43:48.150Z,2.80
2022-09-12T12:46:21.358Z,3.00
2022-09-12T12:49:19.504Z,1.70
2022-09-12T12:51:56.045Z,2.40
2022-09-12T12:54:31.570Z,1.90
2022-09-12T12:57:27.391Z,1.50
2022-09-12T13:00:25.122Z,2.40
2022-09-12T13:03:08.214Z,2.40
2022-09-12T13:05:50.177Z,1.80
2022-09-12T13:08:18.353Z,1.30
2022-09-12T13:11:10.869Z,1.90
2022-09-12T13:13:58.373Z,2.60
2022-09-12T13:16:33.538Z,1.90
2022-09-12T13:19:18.346Z,2.10
2022-09-12T13:22:05.753Z,1.70
2022-09-12T13:24:52.396Z,1.40
2022-09-12T13:27:26.008Z,1.00
2022-09-12T13:30:15.781Z,2.40
2022-09-12T13:32:44.508Z,1.40
2022-09-12T13:35:43.286Z,1.00
2022-09-12T13:38:36.870Z,0.90
2022-09-12T13:41:54.722Z,0.90
2022-09-12T13:44:26.578Z,2.00
2022-09-12T13:46:58.881Z,2.00
2022-09-12T13:49:40.065Z,2.20
2022-09-12T13:52:20.890Z,2.30
2022-09-12T13:54:54.190Z,2.70
2022-09-12T13:57:38.510Z,0.80
2022-09-12T14:00:19.670Z,1.40
2022-09-12T14:02:49.475Z,4.20
2022-09-12T14:05:26.823Z,2.10
2022-09-12T14:07:59.446Z,1.30
2022-09-12T14:10:37.964Z,2.30
2022-09-12T14:13:26.614Z,3.80
2022-09-12T14:15:57.073Z,1.90
2022-09-12T14:18:33.905Z,2.40
2022-09-12T14:21:30.439Z,2.10
2022-09-12T14:24:00.861Z,3.50
2022-09-12T14:26:34.242Z,3.50
2022-09-12T14:29:07.483Z,1.70
2022-09-12T14:31:39.557Z,5.60
2022-09-12T14:36:57.795Z,1.80
2022-09-12T14:39:39.965Z,2.40
2022-09-12T14:42:27.220Z,3.50
2022-09-12T14:45:01.461Z,3.70
2022-09-12T14:47:40.963Z,3.60
2022-09-12T14:50:26.294Z,2.70
2022-09-12T14:53:17.023Z,2.70
2022-09-12T14:55:53.551Z,1.70
2022-09-12T14:58:22.609Z,1.90
2022-09-12T15:01:14.358Z,1.70
2022-09-12T15:03:49.399Z,2.50
2022-09-12T15:06:38.969Z,1.90
2022-09-12T15:09:13.767Z,4.30
2022-09-12T15:11:42.054Z,2.00
2022-09-12T15:14:14.338Z,1.90
2022-09-12T15:16:43.053Z,2.00
2022-09-12T15:19:11.324Z,2.20
2022-09-12T15:21:39.639Z,2.00
2022-09-12T15:24:09.400Z,2.20
2022-09-12T15:26:37.669Z,1.70
2022-09-12T15:29:05.918Z,2.40
2022-09-12T15:31:34.350Z,2.80
2022-09-12T15:34:03.637Z,1.60
2022-09-12T15:36:32.023Z,2.20
2022-09-12T15:39:00.287Z,3.40
2022-09-12T15:41:38.253Z,3.70
2022-09-12T15:44:12.459Z,2.30
2022-09-12T15:46:41.039Z,2.70
2022-09-12T15:49:09.305Z,2.00
2022-09-12T15:51:37.595Z,2.00
2022-09-12T15:54:05.911Z,3.20
2022-09-12T15:56:34.337Z,2.40
2022-09-12T15:59:03.259Z,4.10
2022-09-12T16:01:31.846Z,0.80
2022-09-12T16:04:03.233Z,2.00
2022-09-12T16:06:37.260Z,1.20
2022-09-12T16:09:06.085Z,1.40
2022-09-12T16:11:34.684Z,1.60
2022-09-12T16:14:05.101Z,2.30
2022-09-12T16:16:34.005Z,4.10
2022-09-12T16:19:04.077Z,2.20
2022-09-12T16:21:32.553Z,4.80
2022-09-12T16:24:00.923Z,1.30
2022-09-12T16:26:29.652Z,1.60
2022-09-12T16:28:59.555Z,1.90
2022-09-12T16:31:29.101Z,0.50
2022-09-12T16:33:57.745Z,1.00
2022-09-12T16:36:26.073Z,2.90
2022-09-12T16:38:54.781Z,2.40
2022-09-12T16:41:25.310Z,1.10
2022-09-12T16:43:54.628Z,0.80
2022-09-12T16:46:30.714Z,1.80
2022-09-12T16:48:59.490Z,1.40
2022-09-12T16:51:35.995Z,0.70
2022-09-12T16:54:04.754Z,2.10
2022-09-12T16:56:34.232Z,1.50
2022-09-12T16:59:04.330Z,1.00
2022-09-12T17:01:34.988Z,1.10
2022-09-12T17:04:03.394Z,0.90
2022-09-12T17:06:33.374Z,2.50
2022-09-12T17:09:04.262Z,1.00
2022-09-12T17:11:36.563Z,1.20
2022-09-12T17:14:08.168Z,1.50
2022-09-12T17:16:46.930Z,2.10
2022-09-12T17:19:26.672Z,1.30
2022-09-12T17:21:55.943Z,1.70
2022-09-12T17:24:24.734Z,1.40
2022-09-12T17:26:53.845Z,1.60
2022-09-12T17:29:22.270Z,3.00
2022-09-12T17:31:50.621Z,2.50
2022-09-12T17:34:18.918Z,3.30
2022-09-12T17:36:48.599Z,1.10
2022-09-12T17:39:17.099Z,1.80
2022-09-12T17:41:46.232Z,1.40
2022-09-12T17:44:15.403Z,2.30
2022-09-12T17:46:45.023Z,1.80
2022-09-12T17:49:16.742Z,1.00
2022-09-12T17:51:45.486Z,1.60
2022-09-12T17:54:17.360Z,2.20
2022-09-12T17:56:49.081Z,3.00
2022-09-12T18:02:07.995Z,1.60
2022-09-12T18:04:36.558Z,1.70
2022-09-12T18:07:06.673Z,2.00
2022-09-12T18:09:36.354Z,2.60
2022-09-12T18:12:05.785Z,1.50
2022-09-12T18:14:34.932Z,2.90
2022-09-12T18:17:04.690Z,1.70
2022-09-12T18:19:33.544Z,3.20
2022-09-12T18:22:07.882Z,1.80
2022-09-12T18:24:36.299Z,2.20
2022-09-12T18:27:05.106Z,3.00
2022-09-12T18:29:33.632Z,1.70
2022-09-12T18:32:02.361Z,1.50
2022-09-12T18:34:30.712Z,1.90
2022-09-12T18:36:59.270Z,2.30
2022-09-12T18:39:28.079Z,1.20
2022-09-12T18:41:56.534Z,3.30
2022-09-12T18:44:24.964Z,2.60
2022-09-12T18:46:53.205Z,1.40
2022-09-12T18:49:21.631Z,1.70
2022-09-12T18:51:50.627Z,1.40
2022-09-12T18:54:19.239Z,1.90
2022-09-12T18:56:50.520Z,1.40
2022-09-12T18:59:18.786Z,2.60
2022-09-12T19:01:47.546Z,4.40
2022-09-12T19:04:16.715Z,2.30
2022-09-12T19:06:48.095Z,1.10
2022-09-12T19:09:20.736Z,1.70
2022-09-12T19:11:50.075Z,2.30
2022-09-12T19:14:24.977Z,1.90
2022-09-12T19:16:53.662Z,2.70
2022-09-12T19:19:22.444Z,3.00
2022-09-12T19:21:50.779Z,1.50
2022-09-12T19:24:21.879Z,1.40
2022-09-12T19:26:51.823Z,4.60
2022-09-12T19:29:20.318Z,1.50
2022-09-12T19:31:48.867Z,2.10
2022-09-12T19:34:17.283Z,1.80
2022-09-12T19:36:46.986Z,2.60
2022-09-12T19:39:17.827Z,3.00
2022-09-12T19:41:47.674Z,1.10
2022-09-12T19:44:16.097Z,1.50
2022-09-12T19:46:44.549Z,1.60
2022-09-12T19:49:13.140Z,2.10
2022-09-12T19:51:41.989Z,1.90
2022-09-12T19:54:10.391Z,3.40
2022-09-12T19:56:38.754Z,3.70
2022-09-12T19:59:07.036Z,2.50
2022-09-12T20:01:37.337Z,2.20
2022-09-12T20:04:06.932Z,3.30
2022-09-12T20:06:42.873Z,2.10
2022-09-12T20:09:11.128Z,2.40
2022-09-12T20:11:39.831Z,1.40
2022-09-12T20:14:08.080Z,1.20
2022-09-12T20:16:36.554Z,2.50
2022-09-12T20:19:08.399Z,2.50
2022-09-12T20:21:37.267Z,3.10
2022-09-12T20:24:10.871Z,1.90
2022-09-12T20:26:40.822Z,2.60
2022-09-12T20:29:10.208Z,1.80
2022-09-12T20:31:41.255Z,1.70
2022-09-12T20:34:21.054Z,1.80
2022-09-12T20:36:49.669Z,2.70
2022-09-12T20:39:21.933Z,1.90
2022-09-12T20:44:18.646Z,2.00
2022-09-12T20:46:47.577Z,2.60
2022-09-12T20:49:16.092Z,2.70
2022-09-12T20:51:44.741Z,2.90
2022-09-12T20:54:13.013Z,2.20
2022-09-12T20:56:41.324Z,2.70
2022-09-12T20:59:13.790Z,2.00
2022-09-12T21:01:42.420Z,2.00
2022-09-12T21:04:14.884Z,3.10
2022-09-12T21:06:43.702Z,2.50
2022-09-12T21:09:12.036Z,2.30
2022-09-12T21:11:40.936Z,2.70
2022-09-12T21:14:09.274Z,3.30
2022-09-12T21:16:38.799Z,2.70
2022-09-12T21:19:07.174Z,2.30
2022-09-12T21:21:35.870Z,2.20
2022-09-12T21:24:05.844Z,1.80
2022-09-12T21:26:34.313Z,2.70
2022-09-12T21:29:02.770Z,2.30
2022-09-12T21:31:31.210Z,2.20
2022-09-12T21:33:59.638Z,2.50
2022-09-12T21:36:28.077Z,2.80
2022-09-12T21:38:59.592Z,4.90
2022-09-12T21:41:28.896Z,3.20
2022-09-12T21:43:57.245Z,2.80
2022-09-12T21:46:25.763Z,2.60
2022-09-12T21:48:54.307Z,3.20
2022-09-12T21:51:22.613Z,3.20
2022-09-12T21:53:50.950Z,2.50
2022-09-12T21:56:19.326Z,2.80
2022-09-12T21:58:47.657Z,3.50
2022-09-12T22:01:16.036Z,3.20
2022-09-12T22:03:44.973Z,3.30
2022-09-12T22:06:19.535Z,3.10
2022-09-12T22:08:50.281Z,3.40
2022-09-12T22:11:20.795Z,3.60
2022-09-12T22:13:49.501Z,3.10
2022-09-12T22:16:18.055Z,3.70
2022-09-12T22:18:50.832Z,3.70
2022-09-12T22:21:22.827Z,5.10
2022-09-12T22:24:10.300Z,3.60
2022-09-12T22:26:44.316Z,4.80
2022-09-12T22:29:13.796Z,4.80
2022-09-12T22:31:42.669Z,4.80
2022-09-12T22:34:11.106Z,3.80
2022-09-12T22:36:39.931Z,4.30
2022-09-12T22:39:08.818Z,4.40
2022-09-12T22:41:37.309Z,5.30
2022-09-12T22:44:06.685Z,7.30
2022-09-12T22:46:35.457Z,4.40
2022-09-12T22:49:06.450Z,4.80
2022-09-12T22:51:35.356Z,4.90
2022-09-12T22:54:05.908Z,4.50
2022-09-12T22:56:34.559Z,5.10
2022-09-12T22:59:02.960Z,3.40
2022-09-12T23:01:32.035Z,4.90
2022-09-12T23:04:00.602Z,4.00
2022-09-12T23:06:29.789Z,5.10
2022-09-12T23:08:58.191Z,5.00
2022-09-12T23:11:27.968Z,5.60
2022-09-12T23:13:56.354Z,4.30
2022-09-12T23:16:26.805Z,3.90
2022-09-12T23:18:55.236Z,4.60
2022-09-12T23:21:24.470Z,3.80
2022-09-12T23:23:52.934Z,4.40
2022-09-12T23:26:28.434Z,3.70
2022-09-12T23:29:00.158Z,3.80
2022-09-12T23:31:31.799Z,4.20
2022-09-12T23:34:03.947Z,5.50
2022-09-12T23:36:33.518Z,4.00
2022-09-12T23:39:02.451Z,3.30
2022-09-12T23:41:31.376Z,3.40
2022-09-12T23:43:59.822Z,2.30
2022-09-12T23:46:28.114Z,2.50
2022-09-12T23:48:56.666Z,2.50
2022-09-12T23:51:25.061Z,3.60
2022-09-12T23:53:53.384Z,2.60
2022-09-12T23:56:22.360Z,3.00
2022-09-12T23:58:50.951Z,2.40
